Time;durP1;ratioP1;P1;durP2;ratioP2;P2;SDS_P1;SDS_P2;PMS_P1;PMS_P2;Temp;Humidity;BMP_temperature;BMP_pressure;BME280_temperature;BME280_humidity;BME280_pressure;Samples;Min_cycle;Max_cycle;Signal;HPM_P1;HPM_P2
2024/04/14 00:00:52;;;;;;;12.70;2.60;;;13.90;99.90;;;;;;5341239;26;20239;-68
2024/04/14 00:03:17;;;;;;;13.27;2.90;;;13.90;99.90;;;;;;5337807;26;20261;-67
2024/04/14 00:05:44;;;;;;;12.38;3.00;;;13.80;99.90;;;;;;5341870;26;20275;-66
2024/04/14 00:08:09;;;;;;;10.48;2.30;;;13.80;99.90;;;;;;5342481;26;20282;-66
2024/04/14 00:10:35;;;;;;;11.88;2.75;;;13.70;99.90;;;;;;5395402;26;20269;-68
2024/04/14 00:13:01;;;;;;;13.95;2.58;;;13.70;99.90;;;;;;5374470;26;20238;-67
2024/04/14 00:15:28;;;;;;;12.80;2.88;;;13.60;99.90;;;;;;5341344;26;20241;-67
2024/04/14 00:17:53;;;;;;;12.98;3.08;;;13.50;99.90;;;;;;5339234;26;20269;-68
2024/04/14 00:20:19;;;;;;;15.43;2.90;;;13.40;99.90;;;;;;5342473;26;20266;-67
2024/04/14 00:22:45;;;;;;;11.82;2.38;;;13.40;99.90;;;;;;5338046;26;20313;-67
2024/04/14 00:25:12;;;;;;;16.80;2.10;;;13.30;99.90;;;;;;5341961;26;20237;-68
2024/04/14 00:27:37;;;;;;;11.77;2.40;;;13.30;99.90;;;;;;5342186;26;20221;-67
2024/04/14 00:30:03;;;;;;;13.63;2.17;;;13.30;99.90;;;;;;5396126;26;20285;-66
2024/04/14 00:32:29;;;;;;;11.63;2.42;;;13.20;99.90;;;;;;5338923;26;20290;-68
2024/04/14 00:34:55;;;;;;;8.55;2.05;;;13.20;99.90;;;;;;5368692;26;20230;-68
2024/04/14 00:37:21;;;;;;;11.00;2.50;;;13.20;99.90;;;;;;5340191;26;20651;-70
2024/04/14 00:39:46;;;;;;;18.27;2.67;;;13.10;99.90;;;;;;5344889;26;20320;-68
2024/04/14 00:42:12;;;;;;;8.70;2.15;;;13.00;99.90;;;;;;5339529;26;20238;-67
2024/04/14 00:44:38;;;;;;;11.35;2.45;;;12.90;99.90;;;;;;5334560;26;20257;-68
2024/04/14 00:47:05;;;;;;;12.25;2.40;;;12.90;99.90;;;;;;5342454;26;20636;-67
2024/04/14 00:49:31;;;;;;;8.80;1.70;;;12.90;99.90;;;;;;5337830;26;20253;-67
2024/04/14 00:52:01;;;;;;;10.93;2.40;;;12.80;99.90;;;;;;5343449;26;20243;-67
2024/04/14 00:54:28;;;;;;;9.55;2.58;;;12.70;99.90;;;;;;5346194;26;20272;-68
2024/04/14 00:56:54;;;;;;;10.05;2.55;;;12.60;99.90;;;;;;5338291;26;20254;-67
2024/04/14 00:59:20;;;;;;;11.77;2.55;;;12.50;99.90;;;;;;5335585;26;20359;-67
2024/04/14 01:01:45;;;;;;;14.27;2.88;;;12.40;99.90;;;;;;5340484;26;20271;-67
2024/04/14 01:04:12;;;;;;;14.50;2.55;;;12.40;99.90;;;;;;5341559;26;20242;-67
2024/04/14 01:06:38;;;;;;;15.20;2.70;;;12.30;99.90;;;;;;5337919;26;20230;-67
2024/04/14 01:09:04;;;;;;;11.10;2.42;;;12.20;99.90;;;;;;5339377;26;20695;-67
2024/04/14 01:11:30;;;;;;;18.38;2.60;;;12.20;99.90;;;;;;5337655;26;20283;-66
2024/04/14 01:13:55;;;;;;;19.75;2.80;;;12.10;99.90;;;;;;5342933;26;20821;-67
2024/04/14 01:16:21;;;;;;;12.25;2.60;;;12.00;99.90;;;;;;5337962;26;20277;-66
2024/04/14 01:18:47;;;;;;;21.85;3.00;;;12.00;99.90;;;;;;5365625;26;20264;-68
2024/04/14 01:21:13;;;;;;;19.23;2.75;;;12.00;99.90;;;;;;5398681;26;20733;-69
2024/04/14 01:23:39;;;;;;;12.43;2.38;;;11.90;99.90;;;;;;5341534;26;20332;-69
2024/04/14 01:26:05;;;;;;;12.30;2.70;;;11.90;99.90;;;;;;5339294;26;20322;-69
2024/04/14 01:28:31;;;;;;;23.33;2.88;;;11.90;99.90;;;;;;5400489;26;21272;-68
2024/04/14 01:30:56;;;;;;;14.95;2.67;;;11.80;99.90;;;;;;5338711;26;20231;-68
2024/04/14 01:33:22;;;;;;;14.40;2.88;;;11.90;99.90;;;;;;5338520;26;20284;-68
2024/04/14 01:35:48;;;;;;;9.63;2.45;;;11.90;99.90;;;;;;5341125;26;20356;-68
2024/04/14 01:38:14;;;;;;;12.70;2.75;;;11.90;99.90;;;;;;5343044;26;20701;-69
2024/04/14 01:40:40;;;;;;;14.90;2.20;;;11.90;99.90;;;;;;5335756;26;20238;-67
2024/04/14 01:43:06;;;;;;;12.30;2.38;;;11.90;99.90;;;;;;5398267;26;20277;-68
2024/04/14 01:45:31;;;;;;;14.25;2.30;;;11.80;99.90;;;;;;5397364;26;20234;-68
2024/04/14 01:47:57;;;;;;;17.40;2.90;;;11.80;99.90;;;;;;5337060;26;20288;-68
2024/04/14 01:50:23;;;;;;;13.75;2.50;;;11.70;99.90;;;;;;5339411;26;20355;-68
2024/04/14 01:52:48;;;;;;;15.57;2.20;;;11.60;99.90;;;;;;5341000;26;20229;-68
2024/04/14 01:55:14;;;;;;;16.75;2.42;;;11.60;99.90;;;;;;5339138;26;20238;-68
2024/04/14 01:57:40;;;;;;;15.80;2.97;;;11.50;99.90;;;;;;5341516;26;20239;-68
2024/04/14 02:00:08;;;;;;;13.57;2.15;;;11.50;99.90;;;;;;5336308;26;20280;-68
2024/04/14 02:02:37;;;;;;;7.43;1.70;;;11.50;99.90;;;;;;5339469;26;20512;-69
2024/04/14 02:05:03;;;;;;;13.05;2.42;;;11.40;99.90;;;;;;5340579;26;20226;-67
2024/04/14 02:07:29;;;;;;;9.65;2.00;;;11.30;99.90;;;;;;5339954;26;20762;-68
2024/04/14 02:09:54;;;;;;;11.40;2.55;;;11.30;99.90;;;;;;5341505;26;20238;-68
2024/04/14 02:12:20;;;;;;;15.05;2.60;;;11.30;99.90;;;;;;5340047;26;21004;-67
2024/04/14 02:14:46;;;;;;;14.02;2.25;;;11.30;99.90;;;;;;5396481;26;20238;-68
2024/04/14 02:17:11;;;;;;;10.63;1.92;;;11.20;99.90;;;;;;5342826;26;20343;-67
2024/04/14 02:19:37;;;;;;;22.98;3.17;;;11.20;99.90;;;;;;5343177;26;20286;-67
2024/04/14 02:22:03;;;;;;;16.45;2.20;;;11.10;99.90;;;;;;5343136;26;20249;-68
2024/04/14 02:24:32;;;;;;;12.75;2.03;;;11.10;99.90;;;;;;5345114;26;20741;-68
2024/04/14 02:26:59;;;;;;;11.30;2.00;;;11.00;99.90;;;;;;5401159;26;20269;-68
2024/04/14 02:29:24;;;;;;;10.45;1.92;;;11.10;99.90;;;;;;5344699;26;20591;-68
2024/04/14 02:31:50;;;;;;;14.00;2.22;;;11.00;99.90;;;;;;5342136;26;20226;-68
2024/04/14 02:34:16;;;;;;;14.30;2.40;;;11.00;99.90;;;;;;5347181;26;20242;-68
2024/04/14 02:36:41;;;;;;;9.35;2.05;;;10.90;99.90;;;;;;5341064;26;20229;-68
2024/04/14 02:39:08;;;;;;;10.60;2.13;;;10.90;99.90;;;;;;5343767;26;20736;-68
2024/04/14 02:41:35;;;;;;;14.38;2.42;;;10.90;99.90;;;;;;5355323;26;20570;-68
2024/04/14 02:44:02;;;;;;;17.25;2.70;;;10.80;99.90;;;;;;5343392;26;20754;-67
2024/04/14 02:46:27;;;;;;;12.43;2.00;;;10.70;99.90;;;;;;5346107;26;20272;-67
2024/04/14 02:48:53;;;;;;;8.95;1.90;;;10.70;99.90;;;;;;5342361;26;21747;-68
2024/04/14 02:51:20;;;;;;;12.10;2.17;;;10.70;99.90;;;;;;5340225;26;20231;-67
2024/04/14 02:53:46;;;;;;;11.88;1.80;;;10.60;99.90;;;;;;5339098;26;20703;-68
2024/04/14 02:56:12;;;;;;;13.27;2.58;;;10.60;99.90;;;;;;5343473;26;20687;-68
2024/04/14 02:58:38;;;;;;;8.38;1.75;;;10.60;99.90;;;;;;5340629;26;20238;-68
2024/04/14 03:01:04;;;;;;;11.48;2.25;;;10.50;99.90;;;;;;5342764;26;20254;-68
2024/04/14 03:03:29;;;;;;;13.43;2.35;;;10.50;99.90;;;;;;5342040;26;21123;-67
2024/04/14 03:06:03;;;;;;;14.57;2.05;;;10.50;99.90;;;;;;5336915;26;20227;-67
2024/04/14 03:08:29;;;;;;;13.18;2.13;;;10.50;99.90;;;;;;5401543;26;20234;-66
2024/04/14 03:10:55;;;;;;;10.70;1.90;;;10.50;99.90;;;;;;5342832;26;20269;-68
2024/04/14 03:13:21;;;;;;;15.73;2.15;;;10.40;99.90;;;;;;5338406;26;20241;-68
2024/04/14 03:15:47;;;;;;;12.18;2.28;;;10.40;99.90;;;;;;5345117;26;20234;-68
2024/04/14 03:18:13;;;;;;;12.63;2.10;;;10.40;99.90;;;;;;5340914;26;20230;-67
2024/04/14 03:20:39;;;;;;;10.30;2.10;;;10.40;99.90;;;;;;5340655;26;20235;-68
2024/04/14 03:23:04;;;;;;;11.27;2.00;;;10.30;99.90;;;;;;5344371;26;20756;-68
2024/04/14 03:25:30;;;;;;;11.70;2.13;;;10.30;99.90;;;;;;5341412;26;20277;-68
2024/04/14 03:27:56;;;;;;;12.07;1.98;;;10.30;99.90;;;;;;5343497;26;20277;-68
2024/04/14 03:30:22;;;;;;;11.65;2.15;;;10.30;99.90;;;;;;5397777;26;20229;-68
2024/04/14 03:32:47;;;;;;;15.43;2.47;;;10.30;99.90;;;;;;5340892;26;20309;-67
2024/04/14 03:35:13;;;;;;;12.35;2.20;;;10.30;99.90;;;;;;5345594;26;20229;-67
2024/04/14 03:37:39;;;;;;;13.50;2.67;;;10.20;99.90;;;;;;5344754;26;20311;-68
2024/04/14 03:40:07;;;;;;;12.15;2.35;;;10.20;99.90;;;;;;5340120;26;20297;-67
2024/04/14 03:42:35;;;;;;;18.95;2.60;;;10.20;99.90;;;;;;5343314;26;20319;-69
2024/04/14 03:45:05;;;;;;;11.77;2.30;;;10.20;99.90;;;;;;5342467;26;20277;-66
2024/04/14 03:47:32;;;;;;;15.25;2.08;;;10.10;99.90;;;;;;5342927;26;20239;-67
2024/04/14 03:49:58;;;;;;;15.45;2.38;;;10.20;99.90;;;;;;5335612;26;20277;-67
2024/04/14 03:52:24;;;;;;;9.85;1.80;;;10.10;99.90;;;;;;5341687;26;20307;-67
2024/04/14 03:54:50;;;;;;;15.55;2.40;;;10.10;99.90;;;;;;5340774;26;20227;-68
2024/04/14 03:57:16;;;;;;;14.65;2.03;;;10.10;99.90;;;;;;5340190;26;20282;-67
2024/04/14 03:59:44;;;;;;;14.27;2.67;;;10.20;99.90;;;;;;5338644;26;20239;-67
2024/04/14 04:02:11;;;;;;;12.23;2.60;;;10.10;99.90;;;;;;5341837;26;20230;-68
2024/04/14 04:04:37;;;;;;;12.75;2.30;;;10.00;99.90;;;;;;5340610;26;20731;-68
2024/04/14 04:07:02;;;;;;;13.57;2.25;;;10.00;99.90;;;;;;5342085;26;20234;-68
2024/04/14 04:09:28;;;;;;;13.38;2.40;;;10.00;99.90;;;;;;5343194;26;20706;-67
2024/04/14 04:11:54;;;;;;;15.02;2.40;;;10.00;99.90;;;;;;5349186;26;20778;-69
2024/04/14 04:14:20;;;;;;;9.30;2.30;;;9.90;99.90;;;;;;5340054;26;20237;-67
2024/04/14 04:16:49;;;;;;;15.63;2.88;;;9.90;99.90;;;;;;5342607;26;20242;-67
2024/04/14 04:19:14;;;;;;;12.35;2.38;;;9.80;99.90;;;;;;5339679;26;20572;-67
2024/04/14 04:21:40;;;;;;;10.52;2.10;;;9.80;99.90;;;;;;5343756;26;20305;-68
2024/04/14 04:24:06;;;;;;;16.52;2.50;;;9.80;99.90;;;;;;5340608;26;20393;-68
2024/04/14 04:26:32;;;;;;;13.18;2.50;;;9.80;99.90;;;;;;5339538;26;20707;-67
2024/04/14 04:28:58;;;;;;;13.38;2.38;;;9.80;99.90;;;;;;5341474;26;20229;-66
2024/04/14 04:31:23;;;;;;;13.38;2.10;;;9.70;99.90;;;;;;5398007;26;20584;-67
2024/04/14 04:33:50;;;;;;;10.02;1.83;;;9.80;99.90;;;;;;5342345;26;20344;-67
2024/04/14 04:36:17;;;;;;;16.38;2.45;;;9.70;99.90;;;;;;5313643;26;20242;-67
2024/04/14 04:38:46;;;;;;;14.45;2.53;;;9.70;99.90;;;;;;5339684;26;20230;-68
2024/04/14 04:41:11;;;;;;;13.02;2.65;;;9.70;99.90;;;;;;5338746;26;20671;-67
2024/04/14 04:43:39;;;;;;;8.70;2.42;;;9.70;99.90;;;;;;5343368;26;20330;-68
2024/04/14 04:46:05;;;;;;;17.88;2.72;;;9.70;99.90;;;;;;5342167;26;20235;-67
2024/04/14 04:48:31;;;;;;;11.85;2.28;;;9.70;99.90;;;;;;5342965;26;20334;-68
2024/04/14 04:50:56;;;;;;;13.18;2.10;;;9.70;99.90;;;;;;5344885;26;20246;-68
2024/04/14 04:53:22;;;;;;;17.48;3.17;;;9.70;99.90;;;;;;5402752;26;20596;-66
2024/04/14 04:55:48;;;;;;;14.35;2.50;;;9.70;99.90;;;;;;5339655;26;20226;-67
2024/04/14 04:58:14;;;;;;;14.43;2.60;;;9.70;99.90;;;;;;5345280;26;20773;-68
2024/04/14 05:00:41;;;;;;;14.52;2.20;;;9.70;99.90;;;;;;5340881;26;20276;-66
2024/04/14 05:03:07;;;;;;;18.65;2.53;;;9.70;99.90;;;;;;5341301;26;20308;-66
2024/04/14 05:05:32;;;;;;;18.40;2.50;;;9.70;99.90;;;;;;5341114;26;20408;-66
2024/04/14 05:07:58;;;;;;;16.95;2.92;;;9.70;99.90;;;;;;5341915;26;20235;-65
2024/04/14 05:10:25;;;;;;;20.08;2.72;;;9.80;99.90;;;;;;5398506;26;20222;-66
2024/04/14 05:12:51;;;;;;;13.45;3.00;;;9.80;99.90;;;;;;5347589;26;21241;-66
2024/04/14 05:15:16;;;;;;;15.32;2.40;;;9.80;99.90;;;;;;5343757;26;20351;-66
2024/04/14 05:17:42;;;;;;;11.15;2.17;;;9.80;99.90;;;;;;5342399;26;20242;-66
2024/04/14 05:20:08;;;;;;;12.10;2.10;;;9.90;99.90;;;;;;5407406;26;20241;-67
2024/04/14 05:22:33;;;;;;;15.80;2.17;;;9.90;99.90;;;;;;5322590;26;20235;-67
2024/04/14 05:24:59;;;;;;;16.52;2.63;;;9.90;99.90;;;;;;5403739;26;20245;-66
2024/04/14 05:27:25;;;;;;;14.48;2.35;;;9.90;99.90;;;;;;5343635;26;21047;-66
2024/04/14 05:29:50;;;;;;;13.57;2.35;;;9.90;99.90;;;;;;5345241;26;20838;-66
2024/04/14 05:32:16;;;;;;;11.57;2.50;;;9.90;99.90;;;;;;5356448;26;20281;-66
2024/04/14 05:34:43;;;;;;;10.95;2.08;;;10.00;99.90;;;;;;5347356;26;20257;-67
2024/04/14 05:37:09;;;;;;;15.93;2.47;;;10.00;99.90;;;;;;5350291;26;20288;-67
2024/04/14 05:39:36;;;;;;;11.90;2.47;;;10.10;99.90;;;;;;5341428;26;20247;-67
2024/04/14 05:42:02;;;;;;;12.65;2.40;;;10.10;99.90;;;;;;5346539;26;20270;-67
2024/04/14 05:44:32;;;;;;;15.70;2.40;;;10.10;99.90;;;;;;5342419;26;20234;-67
2024/04/14 05:46:58;;;;;;;13.50;1.92;;;10.10;99.90;;;;;;5345369;26;20284;-67
2024/04/14 05:49:24;;;;;;;8.90;2.03;;;10.20;99.90;;;;;;5349911;26;20238;-67
2024/04/14 05:51:50;;;;;;;15.88;2.15;;;10.20;99.90;;;;;;5353158;26;20234;-67
2024/04/14 05:54:16;;;;;;;16.38;2.95;;;10.20;99.90;;;;;;5349188;26;20272;-67
2024/04/14 05:56:42;;;;;;;14.05;2.17;;;10.20;99.90;;;;;;5347177;26;20229;-67
2024/04/14 05:59:07;;;;;;;11.48;2.30;;;10.20;99.90;;;;;;5351746;26;20239;-67
2024/04/14 06:01:33;;;;;;;15.32;1.98;;;10.20;99.90;;;;;;5351372;26;20279;-66
2024/04/14 06:04:00;;;;;;;12.05;2.17;;;10.20;99.90;;;;;;5350354;26;20411;-66
2024/04/14 06:06:25;;;;;;;10.63;2.17;;;10.20;99.90;;;;;;5351265;26;20227;-67
2024/04/14 06:08:52;;;;;;;12.75;2.10;;;10.20;99.90;;;;;;5344716;26;20727;-68
2024/04/14 06:11:18;;;;;;;7.82;2.33;;;10.30;99.90;;;;;;5340874;26;20246;-66
2024/04/14 06:13:44;;;;;;;8.75;1.95;;;10.30;99.90;;;;;;5347768;26;20276;-68
2024/04/14 06:16:10;;;;;;;12.82;2.17;;;10.30;99.90;;;;;;5403627;26;20241;-69
2024/04/14 06:18:36;;;;;;;11.18;2.13;;;10.30;99.90;;;;;;5342258;26;20227;-67
2024/04/14 06:21:03;;;;;;;16.60;2.58;;;10.30;99.90;;;;;;5352011;26;20229;-66
2024/04/14 06:23:29;;;;;;;15.93;2.28;;;10.40;99.90;;;;;;5346971;26;20773;-67
2024/04/14 06:25:55;;;;;;;9.45;2.05;;;10.40;99.90;;;;;;5408820;26;20238;-66
2024/04/14 06:28:20;;;;;;;13.18;2.60;;;10.40;99.90;;;;;;5344475;26;20242;-67
2024/04/14 06:30:46;;;;;;;11.85;2.10;;;10.40;99.90;;;;;;5343857;26;20718;-66
2024/04/14 06:33:12;;;;;;;12.88;2.10;;;10.50;99.90;;;;;;5347422;26;20249;-67
2024/04/14 06:35:38;;;;;;;13.10;2.00;;;10.50;99.90;;;;;;5354789;26;20670;-67
2024/04/14 06:38:05;;;;;;;11.75;1.67;;;10.50;99.90;;;;;;5359225;26;20250;-68
2024/04/14 06:40:31;;;;;;;15.05;2.40;;;10.60;99.90;;;;;;5404627;26;20289;-67
2024/04/14 06:42:56;;;;;;;9.35;2.22;;;10.60;99.90;;;;;;5351663;26;21111;-66
2024/04/14 06:45:22;;;;;;;12.27;1.90;;;10.70;99.90;;;;;;5351371;26;20573;-66
2024/04/14 06:47:48;;;;;;;16.83;2.30;;;10.70;99.90;;;;;;5351384;26;21504;-68
2024/04/14 06:50:14;;;;;;;11.63;2.05;;;10.80;99.90;;;;;;5352525;26;20277;-65
2024/04/14 06:52:40;;;;;;;12.70;1.95;;;10.80;99.90;;;;;;5352506;26;20233;-66
2024/04/14 06:55:05;;;;;;;12.63;2.13;;;10.80;99.90;;;;;;5351658;26;20336;-68
2024/04/14 06:57:31;;;;;;;11.15;2.00;;;10.90;99.90;;;;;;5348449;26;20306;-66
2024/04/14 06:59:57;;;;;;;8.98;2.08;;;10.90;99.90;;;;;;5407064;26;20234;-67
2024/04/14 07:02:22;;;;;;;16.25;2.00;;;10.90;99.90;;;;;;5354390;26;20545;-66
2024/04/14 07:04:48;;;;;;;13.57;2.40;;;11.00;99.90;;;;;;5345233;26;20241;-68
2024/04/14 07:07:14;;;;;;;10.07;1.83;;;11.00;99.90;;;;;;5379167;26;20364;-66
2024/04/14 07:09:41;;;;;;;11.75;2.08;;;11.00;99.90;;;;;;5349550;26;20860;-67
2024/04/14 07:12:06;;;;;;;10.20;1.90;;;11.10;99.90;;;;;;5347962;26;20336;-66
2024/04/14 07:14:34;;;;;;;9.93;2.00;;;11.10;99.90;;;;;;5352582;26;20249;-66
2024/04/14 07:16:59;;;;;;;12.65;2.38;;;11.10;99.90;;;;;;5353854;26;20340;-67
2024/04/14 07:19:25;;;;;;;11.43;2.10;;;11.20;99.90;;;;;;5347152;26;20237;-68
2024/04/14 07:21:51;;;;;;;10.95;1.83;;;11.20;99.90;;;;;;5345528;26;20305;-68
2024/04/14 07:24:16;;;;;;;9.18;1.70;;;11.20;99.90;;;;;;5345058;26;20226;-68
2024/04/14 07:26:42;;;;;;;9.02;1.92;;;11.30;99.90;;;;;;5345659;26;20230;-66
2024/04/14 07:29:08;;;;;;;13.75;1.92;;;11.30;99.90;;;;;;5352795;26;20237;-67
2024/04/14 07:31:33;;;;;;;6.88;1.95;;;11.30;99.90;;;;;;5348253;26;20231;-66
2024/04/14 07:34:00;;;;;;;9.85;2.05;;;11.40;99.90;;;;;;5348322;26;20237;-67
2024/04/14 07:36:26;;;;;;;10.90;1.98;;;11.40;99.90;;;;;;5344391;26;20289;-66
2024/04/14 07:38:52;;;;;;;12.23;1.80;;;11.50;99.90;;;;;;5351185;26;20347;-66
2024/04/14 07:41:19;;;;;;;8.40;1.92;;;11.50;99.90;;;;;;5351142;26;20291;-66
2024/04/14 07:43:48;;;;;;;8.77;1.85;;;11.60;99.90;;;;;;5350463;26;20746;-66
2024/04/14 07:46:15;;;;;;;12.35;1.98;;;11.70;99.90;;;;;;5349149;26;20284;-67
2024/04/14 07:48:41;;;;;;;7.47;1.73;;;11.70;99.90;;;;;;5409169;26;20241;-67
2024/04/14 07:51:07;;;;;;;8.50;1.90;;;11.70;99.90;;;;;;5350891;26;20342;-67
2024/04/14 07:53:32;;;;;;;10.77;1.90;;;11.70;99.90;;;;;;5345032;26;20281;-66
2024/04/14 07:55:58;;;;;;;10.02;1.80;;;11.70;99.90;;;;;;5404451;26;20234;-67
2024/04/14 07:58:24;;;;;;;10.07;1.80;;;11.80;99.90;;;;;;5351855;26;20226;-72
2024/04/14 08:00:50;;;;;;;8.52;2.10;;;11.80;99.90;;;;;;5347448;26;20633;-67
2024/04/14 08:03:16;;;;;;;8.13;1.55;;;11.90;99.90;;;;;;5351564;26;20226;-68
2024/04/14 08:05:43;;;;;;;7.38;1.50;;;11.90;99.90;;;;;;5346600;26;20239;-69
2024/04/14 08:08:09;;;;;;;9.82;1.48;;;12.00;99.90;;;;;;5342624;26;20238;-69
2024/04/14 08:10:35;;;;;;;6.68;1.85;;;12.00;99.90;;;;;;5342662;26;20286;-67
2024/04/14 08:13:01;;;;;;;6.75;1.55;;;12.10;99.90;;;;;;5344907;26;20419;-66
2024/04/14 08:15:27;;;;;;;6.07;1.42;;;12.20;99.90;;;;;;5350709;26;20749;-68
2024/04/14 08:17:56;;;;;;;10.65;1.58;;;12.20;99.90;;;;;;5399054;26;20351;-67
2024/04/14 08:20:25;;;;;;;8.85;1.98;;;12.20;99.90;;;;;;5342039;26;20234;-67
2024/04/14 08:22:51;;;;;;;6.60;1.35;;;12.20;99.90;;;;;;5339948;26;20234;-68
2024/04/14 08:25:17;;;;;;;11.40;1.70;;;12.20;99.90;;;;;;5348409;26;20281;-66
2024/04/14 08:27:42;;;;;;;5.50;1.50;;;12.30;99.90;;;;;;5347420;26;20242;-66
2024/04/14 08:30:09;;;;;;;11.82;1.77;;;12.30;99.90;;;;;;5346697;26;20543;-68
2024/04/14 08:32:35;;;;;;;6.55;1.40;;;12.40;99.90;;;;;;5341920;26;20247;-67
2024/04/14 08:35:02;;;;;;;4.95;1.48;;;12.40;99.90;;;;;;5346244;26;20562;-65
2024/04/14 08:37:28;;;;;;;8.63;1.70;;;12.60;99.90;;;;;;5350934;26;20278;-67
2024/04/14 08:39:53;;;;;;;5.90;1.75;;;12.70;99.90;;;;;;5344966;26;20592;-67
2024/04/14 08:42:21;;;;;;;8.60;1.65;;;12.80;99.90;;;;;;5350124;26;20240;-67
2024/04/14 08:44:47;;;;;;;7.70;1.42;;;12.80;99.90;;;;;;5341813;26;20242;-67
2024/04/14 08:47:16;;;;;;;8.40;1.73;;;12.80;99.90;;;;;;5349593;26;20237;-68
2024/04/14 08:49:43;;;;;;;5.93;1.60;;;12.70;99.90;;;;;;5347020;26;20275;-67
2024/04/14 08:52:11;;;;;;;8.57;1.70;;;12.60;99.90;;;;;;5343920;26;20242;-68
2024/04/14 08:54:38;;;;;;;6.90;1.40;;;12.60;99.90;;;;;;5338623;26;20237;-68
2024/04/14 08:57:05;;;;;;;7.18;1.63;;;12.60;99.90;;;;;;5341638;26;20338;-68
2024/04/14 08:59:31;;;;;;;8.18;1.67;;;12.50;99.90;;;;;;5350673;26;20285;-67
2024/04/14 09:01:58;;;;;;;8.18;1.67;;;12.60;99.90;;;;;;5350456;26;20287;-68
2024/04/14 09:04:23;;;;;;;9.07;1.90;;;12.70;99.90;;;;;;5344890;26;20254;-68
2024/04/14 09:06:49;;;;;;;7.00;1.85;;;12.70;99.90;;;;;;5347056;26;20477;-68
2024/04/14 09:09:15;;;;;;;7.88;1.80;;;12.70;99.90;;;;;;5346372;26;20281;-68
2024/04/14 09:11:55;;;;;;;7.70;1.90;;;12.80;99.90;;;;;;5340182;26;20393;-67
2024/04/14 09:14:22;;;;;;;7.68;1.60;;;12.90;99.90;;;;;;5344186;26;20257;-67
2024/04/14 09:16:49;;;;;;;7.63;1.67;;;13.00;99.90;;;;;;5397924;26;20266;-67
2024/04/14 09:19:18;;;;;;;6.00;1.50;;;12.90;99.90;;;;;;5376272;26;20656;-67
2024/04/14 09:21:44;;;;;;;5.50;1.10;;;12.90;99.90;;;;;;5343779;26;20582;-65
2024/04/14 09:24:10;;;;;;;8.70;1.92;;;12.90;99.90;;;;;;5340040;26;20279;-67
2024/04/14 09:26:36;;;;;;;6.90;1.70;;;12.90;99.90;;;;;;5349407;26;20239;-67
2024/04/14 09:29:08;;;;;;;8.10;1.85;;;12.90;99.90;;;;;;5342204;26;20230;-66
2024/04/14 09:31:35;;;;;;;5.72;1.60;;;12.90;99.90;;;;;;5348078;26;20243;-68
2024/04/14 09:34:03;;;;;;;9.00;2.00;;;12.90;99.90;;;;;;5346801;26;20242;-68
2024/04/14 09:36:29;;;;;;;6.88;1.70;;;13.00;99.90;;;;;;5343455;26;20302;-69
2024/04/14 09:38:55;;;;;;;6.18;1.55;;;13.10;99.90;;;;;;5343954;26;21326;-67
2024/04/14 09:41:21;;;;;;;7.15;1.75;;;13.20;99.90;;;;;;5401649;26;20340;-68
2024/04/14 09:43:51;;;;;;;4.03;1.48;;;13.20;99.90;;;;;;5342333;26;20285;-66
2024/04/14 09:46:18;;;;;;;4.82;1.27;;;13.20;99.90;;;;;;5347100;26;20335;-67
2024/04/14 09:48:45;;;;;;;6.88;1.70;;;13.20;99.90;;;;;;5343056;26;20254;-67
2024/04/14 09:51:14;;;;;;;7.47;1.80;;;13.10;99.90;;;;;;5349368;26;20369;-67
2024/04/14 09:53:42;;;;;;;7.78;1.80;;;13.10;99.90;;;;;;5343031;26;20340;-66
2024/04/14 09:56:08;;;;;;;6.22;1.70;;;13.10;99.90;;;;;;5345417;26;20290;-66
2024/04/14 09:58:33;;;;;;;5.57;1.70;;;13.10;99.90;;;;;;5348098;26;20241;-68
2024/04/14 10:01:03;;;;;;;8.60;1.48;;;13.10;99.90;;;;;;5344104;26;20242;-67
2024/04/14 10:03:31;;;;;;;6.47;1.40;;;13.20;99.90;;;;;;5341441;26;20429;-67
2024/04/14 10:05:59;;;;;;;7.43;2.13;;;13.20;99.90;;;;;;5346603;26;20237;-67
2024/04/14 10:08:31;;;;;;;6.18;1.52;;;13.40;99.90;;;;;;5345664;26;20285;-68
2024/04/14 10:10:57;;;;;;;4.75;1.20;;;13.50;99.90;;;;;;5344560;26;20246;-68
2024/04/14 10:13:22;;;;;;;8.73;1.60;;;13.60;99.70;;;;;;5350059;26;21079;-67
2024/04/14 10:15:58;;;;;;;6.20;1.65;;;13.70;99.90;;;;;;5343872;26;20289;-66
2024/04/14 10:18:27;;;;;;;5.38;1.40;;;13.70;99.60;;;;;;5335487;26;20305;-66
2024/04/14 10:20:55;;;;;;;9.70;1.67;;;13.70;99.40;;;;;;5342237;26;20246;-68
2024/04/14 10:23:22;;;;;;;5.75;1.48;;;13.70;99.30;;;;;;5345406;26;20235;-69
2024/04/14 10:25:49;;;;;;;8.48;1.40;;;13.80;98.10;;;;;;5351946;26;20338;-66
2024/04/14 10:28:17;;;;;;;7.15;1.38;;;13.80;98.50;;;;;;5341885;26;20237;-67
2024/04/14 10:30:44;;;;;;;10.02;1.90;;;13.80;99.40;;;;;;5338423;26;20238;-66
2024/04/14 10:33:21;;;;;;;8.10;1.60;;;13.90;99.90;;;;;;5345716;26;20246;-67
2024/04/14 10:36:04;;;;;;;7.43;1.83;;;13.80;99.90;;;;;;5342052;26;20642;-67
2024/04/14 10:38:32;;;;;;;5.72;1.58;;;13.70;99.90;;;;;;5352788;26;20238;-67
2024/04/14 10:40:58;;;;;;;7.50;1.80;;;13.70;99.90;;;;;;5348842;26;20292;-66
2024/04/14 10:43:25;;;;;;;8.05;1.40;;;13.80;99.70;;;;;;5346890;26;20336;-68
2024/04/14 10:45:51;;;;;;;6.70;1.80;;;13.80;99.50;;;;;;5408109;26;20237;-67
2024/04/14 10:48:20;;;;;;;8.73;1.77;;;13.80;99.90;;;;;;5343160;26;20258;-68
2024/04/14 10:50:46;;;;;;;8.65;1.83;;;13.80;99.90;;;;;;5349436;26;20238;-68
2024/04/14 10:53:13;;;;;;;6.20;1.73;;;13.80;99.90;;;;;;5348900;26;20295;-66
2024/04/14 10:55:39;;;;;;;9.18;1.70;;;13.80;99.90;;;;;;5346122;26;20230;-67
2024/04/14 10:58:04;;;;;;;3.65;1.40;;;13.80;99.90;;;;;;5348587;26;20384;-67
2024/04/14 11:00:30;;;;;;;10.50;2.90;;;13.90;99.90;;;;;;5347651;26;20234;-68
2024/04/14 11:02:58;;;;;;;12.95;2.22;;;13.90;99.50;;;;;;5348010;26;20705;-68
2024/04/14 11:05:24;;;;;;;6.57;1.50;;;14.00;99.30;;;;;;5350001;26;20239;-67
2024/04/14 11:07:51;;;;;;;8.25;1.60;;;14.10;99.30;;;;;;5348846;26;20247;-67
2024/04/14 11:10:19;;;;;;;8.52;1.70;;;14.10;99.90;;;;;;5347052;26;20308;-66
2024/04/14 11:12:45;;;;;;;11.68;2.08;;;14.00;99.90;;;;;;5347605;26;21655;-66
2024/04/14 11:15:11;;;;;;;9.07;1.70;;;13.90;99.90;;;;;;5340419;26;20273;-66
2024/04/14 11:17:36;;;;;;;8.65;1.65;;;13.90;99.90;;;;;;5340051;26;20295;-66
2024/04/14 11:20:03;;;;;;;8.25;1.75;;;14.00;99.90;;;;;;5345219;26;20243;-67
2024/04/14 11:22:31;;;;;;;7.22;1.60;;;14.10;99.90;;;;;;5405444;26;20318;-66
2024/04/14 11:24:58;;;;;;;8.05;1.77;;;14.10;99.90;;;;;;5342212;26;20387;-67
2024/04/14 11:27:24;;;;;;;12.88;2.00;;;14.00;99.90;;;;;;5343847;26;20229;-67
2024/04/14 11:29:50;;;;;;;8.77;1.83;;;13.90;99.90;;;;;;5339357;26;20384;-67
2024/04/14 11:32:38;;;;;;;7.43;1.65;;;13.70;99.90;;;;;;5398320;26;20241;-67
2024/04/14 11:35:06;;;;;;;10.13;1.92;;;13.60;99.90;;;;;;5347160;26;20711;-67
2024/04/14 11:37:34;;;;;;;12.70;2.03;;;13.60;99.90;;;;;;5345310;26;20280;-66
2024/04/14 11:40:00;;;;;;;8.15;1.70;;;13.60;99.90;;;;;;5339287;26;20569;-67
2024/04/14 11:42:31;;;;;;;8.02;1.75;;;13.70;99.90;;;;;;5355581;26;20238;-68
2024/04/14 11:44:58;;;;;;;9.27;1.80;;;13.90;99.90;;;;;;5351101;26;20238;-68
2024/04/14 11:47:25;;;;;;;9.75;1.90;;;14.00;99.80;;;;;;5345048;26;20274;-66
2024/04/14 11:49:51;;;;;;;8.68;1.48;;;14.20;99.70;;;;;;5348673;26;20390;-67
2024/04/14 11:52:19;;;;;;;5.88;1.25;;;14.40;99.40;;;;;;5411204;26;20312;-67
2024/04/14 11:54:44;;;;;;;10.00;1.70;;;14.70;96.60;;;;;;5346934;26;20289;-68
2024/04/14 11:57:10;;;;;;;5.55;1.50;;;14.80;94.70;;;;;;5348263;26;20278;-67
2024/04/14 11:59:36;;;;;;;8.63;1.77;;;14.90;94.20;;;;;;5343554;26;20285;-67
2024/04/14 12:02:02;;;;;;;9.68;2.10;;;14.90;95.20;;;;;;5346655;26;20719;-67
2024/04/14 12:04:27;;;;;;;9.25;1.77;;;14.80;97.00;;;;;;5396692;26;20238;-66
2024/04/14 12:06:54;;;;;;;12.85;1.90;;;14.70;98.00;;;;;;5348570;26;20243;-68
2024/04/14 12:09:19;;;;;;;7.40;1.67;;;14.60;98.40;;;;;;5346875;26;21339;-68
2024/04/14 12:11:45;;;;;;;12.85;2.15;;;14.50;98.40;;;;;;5346653;26;20297;-67
2024/04/14 12:14:11;;;;;;;8.20;1.80;;;14.50;97.80;;;;;;5341321;26;20313;-68
2024/04/14 12:16:37;;;;;;;6.38;1.75;;;14.50;96.70;;;;;;5340142;26;20722;-67
2024/04/14 12:19:03;;;;;;;8.20;1.70;;;14.60;96.20;;;;;;5345029;26;20293;-69
2024/04/14 12:21:29;;;;;;;5.10;1.80;;;14.60;96.10;;;;;;5344893;26;20299;-66
2024/04/14 12:23:55;;;;;;;8.98;1.88;;;14.60;96.50;;;;;;5345914;26;20793;-67
2024/04/14 12:26:21;;;;;;;11.38;1.75;;;14.60;96.40;;;;;;5344841;26;20783;-67
2024/04/14 12:28:47;;;;;;;8.70;2.08;;;14.50;96.70;;;;;;5400728;26;20315;-68
2024/04/14 12:31:12;;;;;;;5.82;1.45;;;14.50;97.60;;;;;;5347341;26;20234;-68
2024/04/14 12:33:40;;;;;;;10.52;1.73;;;14.50;97.70;;;;;;5337874;26;20234;-68
2024/04/14 12:36:06;;;;;;;7.43;1.67;;;14.50;97.00;;;;;;5349377;26;20357;-68
2024/04/14 12:38:32;;;;;;;11.60;1.85;;;14.50;97.20;;;;;;5349989;26;20247;-67